sensor_id;sensor_type;location;lat;lon;timestamp;P1;durP1;ratioP1;P2;durP2;ratioP2
58784;SDS011;44557;51.862;19.378;2023-07-22T00:01:31;5.60;;;4.20;;
58784;SDS011;44557;51.862;19.378;2023-07-22T00:03:33;7.30;;;4.20;;
58784;SDS011;44557;51.862;19.378;2023-07-22T00:05:35;7.40;;;3.90;;
58784;SDS011;44557;51.862;19.378;2023-07-22T00:07:36;7.10;;;4.00;;
58784;SDS011;44557;51.862;19.378;2023-07-22T00:09:38;6.80;;;4.20;;
58784;SDS011;44557;51.862;19.378;2023-07-22T00:11:40;5.50;;;3.80;;
58784;SDS011;44557;51.862;19.378;2023-07-22T00:13:41;5.70;;;4.10;;
58784;SDS011;44557;51.862;19.378;2023-07-22T00:15:45;6.50;;;4.00;;
58784;SDS011;44557;51.862;19.378;2023-07-22T00:17:46;5.20;;;3.90;;
58784;SDS011;44557;51.862;19.378;2023-07-22T00:19:48;7.50;;;4.60;;
58784;SDS011;44557;51.862;19.378;2023-07-22T00:21:49;5.80;;;3.90;;
58784;SDS011;44557;51.862;19.378;2023-07-22T00:23:53;7.00;;;4.10;;
58784;SDS011;44557;51.862;19.378;2023-07-22T00:25:54;6.40;;;4.00;;
58784;SDS011;44557;51.862;19.378;2023-07-22T00:27:56;5.50;;;3.80;;
58784;SDS011;44557;51.862;19.378;2023-07-22T00:29:58;5.30;;;3.90;;
58784;SDS011;44557;51.862;19.378;2023-07-22T00:32:00;6.50;;;4.40;;
58784;SDS011;44557;51.862;19.378;2023-07-22T00:34:02;5.70;;;3.90;;
58784;SDS011;44557;51.862;19.378;2023-07-22T00:36:03;5.30;;;3.70;;
58784;SDS011;44557;51.862;19.378;2023-07-22T00:38:05;6.00;;;3.90;;
58784;SDS011;44557;51.862;19.378;2023-07-22T00:40:07;7.70;;;4.20;;
58784;SDS011;44557;51.862;19.378;2023-07-22T00:42:13;4.80;;;3.90;;
58784;SDS011;44557;51.862;19.378;2023-07-22T00:44:14;6.40;;;4.00;;
58784;SDS011;44557;51.862;19.378;2023-07-22T00:46:16;6.00;;;3.70;;
58784;SDS011;44557;51.862;19.378;2023-07-22T00:48:17;5.60;;;3.80;;
58784;SDS011;44557;51.862;19.378;2023-07-22T00:50:20;5.90;;;3.70;;
58784;SDS011;44557;51.862;19.378;2023-07-22T00:52:23;5.40;;;3.30;;
58784;SDS011;44557;51.862;19.378;2023-07-22T00:54:24;5.00;;;3.50;;
58784;SDS011;44557;51.862;19.378;2023-07-22T00:56:26;5.30;;;3.30;;
58784;SDS011;44557;51.862;19.378;2023-07-22T00:58:28;5.00;;;3.80;;
58784;SDS011;44557;51.862;19.378;2023-07-22T01:00:29;5.50;;;3.30;;
58784;SDS011;44557;51.862;19.378;2023-07-22T01:02:31;6.50;;;3.60;;
58784;SDS011;44557;51.862;19.378;2023-07-22T01:04:51;4.70;;;3.00;;
58784;SDS011;44557;51.862;19.378;2023-07-22T01:06:53;4.50;;;3.10;;
58784;SDS011;44557;51.862;19.378;2023-07-22T01:08:56;5.00;;;3.40;;
58784;SDS011;44557;51.862;19.378;2023-07-22T01:11:00;5.40;;;3.30;;
58784;SDS011;44557;51.862;19.378;2023-07-22T01:13:05;6.30;;;3.30;;
58784;SDS011;44557;51.862;19.378;2023-07-22T01:15:07;4.30;;;3.30;;
58784;SDS011;44557;51.862;19.378;2023-07-22T01:17:10;6.10;;;3.10;;
58784;SDS011;44557;51.862;19.378;2023-07-22T01:19:13;4.80;;;3.20;;
58784;SDS011;44557;51.862;19.378;2023-07-22T01:21:23;7.20;;;3.00;;
58784;SDS011;44557;51.862;19.378;2023-07-22T01:23:26;4.30;;;3.00;;
58784;SDS011;44557;51.862;19.378;2023-07-22T01:25:27;4.30;;;2.80;;
58784;SDS011;44557;51.862;19.378;2023-07-22T01:27:29;4.80;;;3.00;;
58784;SDS011;44557;51.862;19.378;2023-07-22T01:29:31;5.70;;;3.20;;
58784;SDS011;44557;51.862;19.378;2023-07-22T01:31:36;5.20;;;3.10;;
58784;SDS011;44557;51.862;19.378;2023-07-22T01:33:39;5.00;;;3.00;;
58784;SDS011;44557;51.862;19.378;2023-07-22T01:35:41;4.60;;;3.00;;
58784;SDS011;44557;51.862;19.378;2023-07-22T01:37:43;5.50;;;3.40;;
58784;SDS011;44557;51.862;19.378;2023-07-22T01:39:44;5.10;;;3.10;;
58784;SDS011;44557;51.862;19.378;2023-07-22T01:41:46;5.90;;;3.20;;
58784;SDS011;44557;51.862;19.378;2023-07-22T01:43:49;4.90;;;3.00;;
58784;SDS011;44557;51.862;19.378;2023-07-22T01:45:50;9.50;;;3.70;;
58784;SDS011;44557;51.862;19.378;2023-07-22T01:47:52;4.10;;;3.10;;
58784;SDS011;44557;51.862;19.378;2023-07-22T01:49:53;5.00;;;2.90;;
58784;SDS011;44557;51.862;19.378;2023-07-22T01:51:55;4.50;;;3.10;;
58784;SDS011;44557;51.862;19.378;2023-07-22T01:53:57;4.70;;;3.00;;
58784;SDS011;44557;51.862;19.378;2023-07-22T01:55:59;4.70;;;3.30;;
58784;SDS011;44557;51.862;19.378;2023-07-22T01:58:00;5.10;;;3.40;;
58784;SDS011;44557;51.862;19.378;2023-07-22T02:00:02;6.30;;;3.10;;
58784;SDS011;44557;51.862;19.378;2023-07-22T02:02:06;3.70;;;2.90;;
58784;SDS011;44557;51.862;19.378;2023-07-22T02:04:08;4.80;;;3.20;;
58784;SDS011;44557;51.862;19.378;2023-07-22T02:06:09;4.80;;;3.30;;
58784;SDS011;44557;51.862;19.378;2023-07-22T02:08:11;5.60;;;3.30;;
58784;SDS011;44557;51.862;19.378;2023-07-22T02:10:13;4.50;;;3.10;;
58784;SDS011;44557;51.862;19.378;2023-07-22T02:12:14;4.30;;;3.10;;
58784;SDS011;44557;51.862;19.378;2023-07-22T02:14:16;4.00;;;2.90;;
58784;SDS011;44557;51.862;19.378;2023-07-22T02:16:18;5.70;;;3.20;;
58784;SDS011;44557;51.862;19.378;2023-07-22T02:18:20;5.30;;;3.30;;
58784;SDS011;44557;51.862;19.378;2023-07-22T02:20:21;4.80;;;3.10;;
58784;SDS011;44557;51.862;19.378;2023-07-22T02:22:23;4.70;;;3.00;;
58784;SDS011;44557;51.862;19.378;2023-07-22T02:24:25;5.60;;;3.40;;
58784;SDS011;44557;51.862;19.378;2023-07-22T02:26:26;5.50;;;3.20;;
58784;SDS011;44557;51.862;19.378;2023-07-22T02:28:28;4.00;;;3.00;;
58784;SDS011;44557;51.862;19.378;2023-07-22T02:30:30;5.30;;;3.50;;
58784;SDS011;44557;51.862;19.378;2023-07-22T02:32:39;5.30;;;3.30;;
58784;SDS011;44557;51.862;19.378;2023-07-22T02:34:41;5.70;;;3.30;;
58784;SDS011;44557;51.862;19.378;2023-07-22T02:36:43;7.20;;;3.40;;
58784;SDS011;44557;51.862;19.378;2023-07-22T02:38:44;5.20;;;3.20;;
58784;SDS011;44557;51.862;19.378;2023-07-22T02:40:46;7.90;;;3.80;;
58784;SDS011;44557;51.862;19.378;2023-07-22T02:42:48;4.50;;;3.30;;
58784;SDS011;44557;51.862;19.378;2023-07-22T02:44:50;4.80;;;3.10;;
58784;SDS011;44557;51.862;19.378;2023-07-22T02:46:51;5.20;;;3.40;;
58784;SDS011;44557;51.862;19.378;2023-07-22T02:48:54;5.40;;;3.20;;
58784;SDS011;44557;51.862;19.378;2023-07-22T02:51:01;5.10;;;3.30;;
58784;SDS011;44557;51.862;19.378;2023-07-22T02:53:06;6.60;;;3.30;;
58784;SDS011;44557;51.862;19.378;2023-07-22T02:55:08;5.60;;;3.20;;
58784;SDS011;44557;51.862;19.378;2023-07-22T02:57:15;6.90;;;3.40;;
58784;SDS011;44557;51.862;19.378;2023-07-22T02:59:17;5.40;;;3.50;;
58784;SDS011;44557;51.862;19.378;2023-07-22T03:01:18;5.30;;;3.30;;
58784;SDS011;44557;51.862;19.378;2023-07-22T03:03:20;6.10;;;3.30;;
58784;SDS011;44557;51.862;19.378;2023-07-22T03:05:22;5.20;;;3.00;;
58784;SDS011;44557;51.862;19.378;2023-07-22T03:07:24;4.90;;;3.10;;
58784;SDS011;44557;51.862;19.378;2023-07-22T03:09:27;5.00;;;3.10;;
58784;SDS011;44557;51.862;19.378;2023-07-22T03:11:29;5.30;;;3.00;;
58784;SDS011;44557;51.862;19.378;2023-07-22T03:13:31;6.90;;;3.20;;
58784;SDS011;44557;51.862;19.378;2023-07-22T03:15:34;4.70;;;3.10;;
58784;SDS011;44557;51.862;19.378;2023-07-22T03:17:35;6.00;;;3.20;;
58784;SDS011;44557;51.862;19.378;2023-07-22T03:19:37;5.70;;;3.30;;
58784;SDS011;44557;51.862;19.378;2023-07-22T03:21:39;4.50;;;3.00;;
58784;SDS011;44557;51.862;19.378;2023-07-22T03:23:41;5.80;;;3.00;;
58784;SDS011;44557;51.862;19.378;2023-07-22T03:25:42;5.00;;;2.80;;
58784;SDS011;44557;51.862;19.378;2023-07-22T03:27:45;5.30;;;3.20;;
58784;SDS011;44557;51.862;19.378;2023-07-22T03:29:47;4.40;;;2.90;;
58784;SDS011;44557;51.862;19.378;2023-07-22T03:31:48;4.40;;;2.80;;
58784;SDS011;44557;51.862;19.378;2023-07-22T03:33:50;4.40;;;2.80;;
58784;SDS011;44557;51.862;19.378;2023-07-22T03:35:52;4.10;;;2.80;;
58784;SDS011;44557;51.862;19.378;2023-07-22T03:37:53;5.20;;;2.90;;
58784;SDS011;44557;51.862;19.378;2023-07-22T03:39:56;4.70;;;3.00;;
58784;SDS011;44557;51.862;19.378;2023-07-22T03:41:57;5.20;;;3.30;;
58784;SDS011;44557;51.862;19.378;2023-07-22T03:43:59;4.50;;;2.60;;
58784;SDS011;44557;51.862;19.378;2023-07-22T03:46:00;5.60;;;2.70;;
58784;SDS011;44557;51.862;19.378;2023-07-22T03:48:02;5.70;;;2.80;;
58784;SDS011;44557;51.862;19.378;2023-07-22T03:50:04;3.90;;;2.60;;
58784;SDS011;44557;51.862;19.378;2023-07-22T03:52:07;4.50;;;2.80;;
58784;SDS011;44557;51.862;19.378;2023-07-22T03:54:09;4.00;;;2.30;;
58784;SDS011;44557;51.862;19.378;2023-07-22T03:56:10;3.60;;;2.80;;
58784;SDS011;44557;51.862;19.378;2023-07-22T03:58:12;5.20;;;3.10;;
58784;SDS011;44557;51.862;19.378;2023-07-22T04:00:15;4.70;;;2.70;;
58784;SDS011;44557;51.862;19.378;2023-07-22T04:02:16;4.40;;;2.60;;
58784;SDS011;44557;51.862;19.378;2023-07-22T04:04:18;3.50;;;2.60;;
58784;SDS011;44557;51.862;19.378;2023-07-22T04:06:20;3.60;;;2.30;;
58784;SDS011;44557;51.862;19.378;2023-07-22T04:08:21;4.30;;;2.50;;
58784;SDS011;44557;51.862;19.378;2023-07-22T04:10:24;3.90;;;2.50;;
58784;SDS011;44557;51.862;19.378;2023-07-22T04:12:25;4.40;;;2.50;;
58784;SDS011;44557;51.862;19.378;2023-07-22T04:14:27;4.50;;;2.50;;
58784;SDS011;44557;51.862;19.378;2023-07-22T04:16:29;6.00;;;2.40;;
58784;SDS011;44557;51.862;19.378;2023-07-22T04:18:30;4.90;;;2.50;;
58784;SDS011;44557;51.862;19.378;2023-07-22T04:20:35;4.20;;;2.20;;
58784;SDS011;44557;51.862;19.378;2023-07-22T04:22:37;3.50;;;2.40;;
58784;SDS011;44557;51.862;19.378;2023-07-22T04:24:39;3.60;;;2.50;;
58784;SDS011;44557;51.862;19.378;2023-07-22T04:26:43;4.10;;;2.80;;
58784;SDS011;44557;51.862;19.378;2023-07-22T04:28:46;4.20;;;2.10;;
58784;SDS011;44557;51.862;19.378;2023-07-22T04:30:54;4.50;;;2.40;;
58784;SDS011;44557;51.862;19.378;2023-07-22T04:32:57;3.30;;;2.00;;
58784;SDS011;44557;51.862;19.378;2023-07-22T04:35:08;4.80;;;2.30;;
58784;SDS011;44557;51.862;19.378;2023-07-22T04:37:09;4.60;;;2.20;;
58784;SDS011;44557;51.862;19.378;2023-07-22T04:39:11;4.20;;;2.30;;
58784;SDS011;44557;51.862;19.378;2023-07-22T04:41:13;3.50;;;2.30;;
58784;SDS011;44557;51.862;19.378;2023-07-22T04:43:16;3.60;;;2.50;;
58784;SDS011;44557;51.862;19.378;2023-07-22T04:45:18;5.30;;;2.20;;
58784;SDS011;44557;51.862;19.378;2023-07-22T04:47:20;4.30;;;2.00;;
58784;SDS011;44557;51.862;19.378;2023-07-22T04:49:21;3.10;;;2.20;;
58784;SDS011;44557;51.862;19.378;2023-07-22T04:51:26;4.50;;;2.50;;
58784;SDS011;44557;51.862;19.378;2023-07-22T04:53:29;4.90;;;2.40;;
58784;SDS011;44557;51.862;19.378;2023-07-22T04:55:31;3.50;;;2.20;;
58784;SDS011;44557;51.862;19.378;2023-07-22T04:57:41;4.10;;;2.50;;
58784;SDS011;44557;51.862;19.378;2023-07-22T04:59:43;4.00;;;2.10;;
58784;SDS011;44557;51.862;19.378;2023-07-22T05:01:45;3.90;;;2.00;;
58784;SDS011;44557;51.862;19.378;2023-07-22T05:03:47;2.90;;;2.00;;
58784;SDS011;44557;51.862;19.378;2023-07-22T05:05:48;2.80;;;2.00;;
58784;SDS011;44557;51.862;19.378;2023-07-22T05:07:50;5.10;;;2.60;;
58784;SDS011;44557;51.862;19.378;2023-07-22T05:12:13;4.50;;;2.50;;
58784;SDS011;44557;51.862;19.378;2023-07-22T05:14:15;4.30;;;2.70;;
58784;SDS011;44557;51.862;19.378;2023-07-22T05:16:19;5.60;;;3.20;;
58784;SDS011;44557;51.862;19.378;2023-07-22T05:18:22;4.80;;;2.70;;
58784;SDS011;44557;51.862;19.378;2023-07-22T05:20:24;4.20;;;2.30;;
58784;SDS011;44557;51.862;19.378;2023-07-22T05:22:25;5.50;;;3.00;;
58784;SDS011;44557;51.862;19.378;2023-07-22T05:24:27;4.20;;;2.50;;
58784;SDS011;44557;51.862;19.378;2023-07-22T05:26:29;3.70;;;2.60;;
58784;SDS011;44557;51.862;19.378;2023-07-22T05:28:32;4.00;;;2.10;;
58784;SDS011;44557;51.862;19.378;2023-07-22T05:30:34;4.00;;;2.60;;
58784;SDS011;44557;51.862;19.378;2023-07-22T05:32:35;5.00;;;2.80;;
58784;SDS011;44557;51.862;19.378;2023-07-22T05:34:37;4.20;;;2.70;;
58784;SDS011;44557;51.862;19.378;2023-07-22T05:36:39;5.50;;;3.00;;
58784;SDS011;44557;51.862;19.378;2023-07-22T05:38:41;6.80;;;3.20;;
58784;SDS011;44557;51.862;19.378;2023-07-22T05:40:43;6.40;;;3.60;;
58784;SDS011;44557;51.862;19.378;2023-07-22T05:42:44;7.30;;;4.70;;
58784;SDS011;44557;51.862;19.378;2023-07-22T05:44:47;7.50;;;4.20;;
58784;SDS011;44557;51.862;19.378;2023-07-22T05:46:49;6.40;;;3.90;;
58784;SDS011;44557;51.862;19.378;2023-07-22T05:48:51;7.30;;;3.40;;
58784;SDS011;44557;51.862;19.378;2023-07-22T05:50:53;3.80;;;2.20;;
58784;SDS011;44557;51.862;19.378;2023-07-22T05:52:54;3.60;;;2.20;;
58784;SDS011;44557;51.862;19.378;2023-07-22T05:54:58;6.00;;;2.60;;
58784;SDS011;44557;51.862;19.378;2023-07-22T05:57:00;5.90;;;3.00;;
58784;SDS011;44557;51.862;19.378;2023-07-22T05:59:02;4.80;;;3.00;;
58784;SDS011;44557;51.862;19.378;2023-07-22T06:01:04;9.00;;;4.90;;
58784;SDS011;44557;51.862;19.378;2023-07-22T06:03:06;5.40;;;2.90;;
58784;SDS011;44557;51.862;19.378;2023-07-22T06:05:07;6.30;;;3.30;;
58784;SDS011;44557;51.862;19.378;2023-07-22T06:07:09;5.00;;;2.60;;
58784;SDS011;44557;51.862;19.378;2023-07-22T06:09:11;6.00;;;2.40;;
58784;SDS011;44557;51.862;19.378;2023-07-22T06:11:13;4.30;;;2.10;;
58784;SDS011;44557;51.862;19.378;2023-07-22T06:13:15;5.20;;;2.60;;
58784;SDS011;44557;51.862;19.378;2023-07-22T06:15:16;4.80;;;2.30;;
58784;SDS011;44557;51.862;19.378;2023-07-22T06:17:18;4.00;;;2.30;;
58784;SDS011;44557;51.862;19.378;2023-07-22T06:19:21;4.90;;;2.60;;
58784;SDS011;44557;51.862;19.378;2023-07-22T06:21:24;4.30;;;2.20;;
58784;SDS011;44557;51.862;19.378;2023-07-22T06:23:26;5.60;;;2.50;;
58784;SDS011;44557;51.862;19.378;2023-07-22T06:25:28;9.40;;;4.30;;
58784;SDS011;44557;51.862;19.378;2023-07-22T06:27:29;6.50;;;3.70;;
58784;SDS011;44557;51.862;19.378;2023-07-22T06:29:31;5.40;;;2.90;;
58784;SDS011;44557;51.862;19.378;2023-07-22T06:31:33;3.60;;;2.20;;
58784;SDS011;44557;51.862;19.378;2023-07-22T06:33:35;6.30;;;2.90;;
58784;SDS011;44557;51.862;19.378;2023-07-22T06:35:37;5.40;;;2.50;;
58784;SDS011;44557;51.862;19.378;2023-07-22T06:37:39;5.20;;;2.80;;
58784;SDS011;44557;51.862;19.378;2023-07-22T06:39:41;7.20;;;3.60;;
58784;SDS011;44557;51.862;19.378;2023-07-22T06:41:43;3.30;;;2.40;;
58784;SDS011;44557;51.862;19.378;2023-07-22T06:43:45;3.80;;;2.20;;
58784;SDS011;44557;51.862;19.378;2023-07-22T06:45:47;5.50;;;2.50;;
58784;SDS011;44557;51.862;19.378;2023-07-22T06:47:49;4.50;;;2.50;;
58784;SDS011;44557;51.862;19.378;2023-07-22T06:49:50;3.20;;;2.10;;
58784;SDS011;44557;51.862;19.378;2023-07-22T06:51:52;4.20;;;2.10;;
58784;SDS011;44557;51.862;19.378;2023-07-22T06:53:53;4.90;;;2.30;;
58784;SDS011;44557;51.862;19.378;2023-07-22T06:55:55;4.10;;;2.30;;
58784;SDS011;44557;51.862;19.378;2023-07-22T06:57:57;4.10;;;2.00;;
58784;SDS011;44557;51.862;19.378;2023-07-22T06:59:59;4.60;;;2.00;;
58784;SDS011;44557;51.862;19.378;2023-07-22T07:02:03;3.30;;;2.10;;
58784;SDS011;44557;51.862;19.378;2023-07-22T07:04:06;4.40;;;2.50;;
58784;SDS011;44557;51.862;19.378;2023-07-22T07:06:08;8.50;;;4.80;;
58784;SDS011;44557;51.862;19.378;2023-07-22T07:08:09;4.70;;;2.20;;
58784;SDS011;44557;51.862;19.378;2023-07-22T07:10:14;7.50;;;4.50;;
58784;SDS011;44557;51.862;19.378;2023-07-22T07:12:16;8.00;;;3.60;;
58784;SDS011;44557;51.862;19.378;2023-07-22T07:14:18;4.90;;;2.60;;
58784;SDS011;44557;51.862;19.378;2023-07-22T07:16:24;4.30;;;3.10;;
58784;SDS011;44557;51.862;19.378;2023-07-22T07:18:28;4.00;;;2.50;;
58784;SDS011;44557;51.862;19.378;2023-07-22T07:20:30;4.10;;;2.10;;
58784;SDS011;44557;51.862;19.378;2023-07-22T07:22:32;4.30;;;2.50;;
58784;SDS011;44557;51.862;19.378;2023-07-22T07:24:33;4.60;;;2.20;;
58784;SDS011;44557;51.862;19.378;2023-07-22T07:26:35;3.60;;;2.10;;
58784;SDS011;44557;51.862;19.378;2023-07-22T07:28:37;7.20;;;2.10;;
58784;SDS011;44557;51.862;19.378;2023-07-22T07:30:38;3.70;;;2.20;;
58784;SDS011;44557;51.862;19.378;2023-07-22T07:32:41;4.00;;;2.30;;
58784;SDS011;44557;51.862;19.378;2023-07-22T07:34:43;5.00;;;2.50;;
58784;SDS011;44557;51.862;19.378;2023-07-22T07:36:45;6.80;;;3.00;;
58784;SDS011;44557;51.862;19.378;2023-07-22T07:38:46;4.40;;;2.50;;
58784;SDS011;44557;51.862;19.378;2023-07-22T07:40:52;5.10;;;2.70;;
58784;SDS011;44557;51.862;19.378;2023-07-22T07:42:55;3.00;;;1.90;;
58784;SDS011;44557;51.862;19.378;2023-07-22T07:44:57;5.20;;;2.50;;
58784;SDS011;44557;51.862;19.378;2023-07-22T07:46:58;7.00;;;2.50;;
58784;SDS011;44557;51.862;19.378;2023-07-22T07:49:00;3.10;;;2.20;;
58784;SDS011;44557;51.862;19.378;2023-07-22T07:51:02;3.40;;;2.10;;
58784;SDS011;44557;51.862;19.378;2023-07-22T07:53:05;4.00;;;2.00;;
58784;SDS011;44557;51.862;19.378;2023-07-22T07:55:07;5.20;;;2.50;;
58784;SDS011;44557;51.862;19.378;2023-07-22T07:57:09;4.10;;;2.40;;
58784;SDS011;44557;51.862;19.378;2023-07-22T07:59:11;3.80;;;2.30;;
58784;SDS011;44557;51.862;19.378;2023-07-22T08:01:13;4.10;;;1.80;;
58784;SDS011;44557;51.862;19.378;2023-07-22T08:03:15;2.60;;;1.90;;
58784;SDS011;44557;51.862;19.378;2023-07-22T08:05:18;7.70;;;3.00;;
58784;SDS011;44557;51.862;19.378;2023-07-22T08:07:19;5.40;;;3.60;;
58784;SDS011;44557;51.862;19.378;2023-07-22T08:09:21;5.00;;;3.30;;
58784;SDS011;44557;51.862;19.378;2023-07-22T08:11:24;5.50;;;3.20;;
58784;SDS011;44557;51.862;19.378;2023-07-22T08:13:25;4.70;;;2.10;;
58784;SDS011;44557;51.862;19.378;2023-07-22T08:15:28;2.70;;;1.80;;
58784;SDS011;44557;51.862;19.378;2023-07-22T08:17:30;5.50;;;2.60;;
58784;SDS011;44557;51.862;19.378;2023-07-22T08:19:33;3.80;;;2.40;;
58784;SDS011;44557;51.862;19.378;2023-07-22T08:21:35;4.40;;;2.30;;
58784;SDS011;44557;51.862;19.378;2023-07-22T08:23:36;4.60;;;2.50;;
58784;SDS011;44557;51.862;19.378;2023-07-22T08:25:38;4.10;;;2.00;;
58784;SDS011;44557;51.862;19.378;2023-07-22T08:27:40;4.40;;;1.80;;
58784;SDS011;44557;51.862;19.378;2023-07-22T08:29:42;3.80;;;1.80;;
58784;SDS011;44557;51.862;19.378;2023-07-22T08:31:43;3.30;;;1.80;;
58784;SDS011;44557;51.862;19.378;2023-07-22T08:33:45;4.70;;;2.20;;
58784;SDS011;44557;51.862;19.378;2023-07-22T08:35:46;3.90;;;2.00;;
58784;SDS011;44557;51.862;19.378;2023-07-22T08:37:49;7.30;;;1.90;;
58784;SDS011;44557;51.862;19.378;2023-07-22T08:39:51;4.60;;;2.10;;
58784;SDS011;44557;51.862;19.378;2023-07-22T08:41:53;3.60;;;1.90;;
58784;SDS011;44557;51.862;19.378;2023-07-22T08:43:58;3.90;;;2.00;;
58784;SDS011;44557;51.862;19.378;2023-07-22T08:46:03;4.00;;;1.80;;
58784;SDS011;44557;51.862;19.378;2023-07-22T08:48:08;2.70;;;2.00;;
58784;SDS011;44557;51.862;19.378;2023-07-22T08:50:13;5.00;;;2.00;;
58784;SDS011;44557;51.862;19.378;2023-07-22T08:52:20;3.10;;;2.00;;
58784;SDS011;44557;51.862;19.378;2023-07-22T08:54:24;3.00;;;1.80;;
58784;SDS011;44557;51.862;19.378;2023-07-22T08:56:26;4.10;;;1.80;;
58784;SDS011;44557;51.862;19.378;2023-07-22T08:58:29;1.90;;;1.70;;
58784;SDS011;44557;51.862;19.378;2023-07-22T09:00:32;2.60;;;1.80;;
58784;SDS011;44557;51.862;19.378;2023-07-22T09:02:35;2.60;;;1.70;;
58784;SDS011;44557;51.862;19.378;2023-07-22T09:04:38;2.50;;;1.80;;
58784;SDS011;44557;51.862;19.378;2023-07-22T09:09:19;2.80;;;1.80;;
58784;SDS011;44557;51.862;19.378;2023-07-22T09:11:22;2.20;;;1.50;;
58784;SDS011;44557;51.862;19.378;2023-07-22T09:13:26;3.30;;;1.50;;
58784;SDS011;44557;51.862;19.378;2023-07-22T09:15:28;2.60;;;1.60;;
58784;SDS011;44557;51.862;19.378;2023-07-22T09:17:30;4.00;;;1.80;;
58784;SDS011;44557;51.862;19.378;2023-07-22T09:19:33;2.90;;;1.90;;
58784;SDS011;44557;51.862;19.378;2023-07-22T09:21:35;2.60;;;1.80;;
58784;SDS011;44557;51.862;19.378;2023-07-22T09:23:37;3.90;;;1.50;;
58784;SDS011;44557;51.862;19.378;2023-07-22T09:25:40;5.60;;;2.90;;
58784;SDS011;44557;51.862;19.378;2023-07-22T09:27:43;6.60;;;2.30;;
58784;SDS011;44557;51.862;19.378;2023-07-22T09:29:45;4.10;;;1.80;;
58784;SDS011;44557;51.862;19.378;2023-07-22T09:31:51;5.90;;;3.70;;
58784;SDS011;44557;51.862;19.378;2023-07-22T09:33:55;4.00;;;2.00;;
58784;SDS011;44557;51.862;19.378;2023-07-22T09:36:11;3.30;;;1.80;;
58784;SDS011;44557;51.862;19.378;2023-07-22T09:38:13;3.40;;;1.70;;
58784;SDS011;44557;51.862;19.378;2023-07-22T09:40:27;2.90;;;1.80;;
58784;SDS011;44557;51.862;19.378;2023-07-22T09:42:30;4.00;;;1.80;;
58784;SDS011;44557;51.862;19.378;2023-07-22T09:44:32;3.20;;;1.70;;
58784;SDS011;44557;51.862;19.378;2023-07-22T09:46:34;2.80;;;1.70;;
58784;SDS011;44557;51.862;19.378;2023-07-22T09:48:42;3.70;;;2.20;;
58784;SDS011;44557;51.862;19.378;2023-07-22T09:50:46;3.60;;;2.20;;
58784;SDS011;44557;51.862;19.378;2023-07-22T09:52:57;5.70;;;2.20;;
58784;SDS011;44557;51.862;19.378;2023-07-22T09:54:59;6.00;;;3.20;;
58784;SDS011;44557;51.862;19.378;2023-07-22T09:57:01;3.80;;;2.40;;
58784;SDS011;44557;51.862;19.378;2023-07-22T09:59:06;5.60;;;2.20;;
58784;SDS011;44557;51.862;19.378;2023-07-22T10:01:08;6.60;;;3.30;;
58784;SDS011;44557;51.862;19.378;2023-07-22T10:03:14;6.50;;;2.50;;
58784;SDS011;44557;51.862;19.378;2023-07-22T10:05:19;5.50;;;2.60;;
58784;SDS011;44557;51.862;19.378;2023-07-22T10:07:21;3.60;;;2.20;;
58784;SDS011;44557;51.862;19.378;2023-07-22T10:09:23;3.10;;;2.00;;
58784;SDS011;44557;51.862;19.378;2023-07-22T10:11:29;2.90;;;1.60;;
58784;SDS011;44557;51.862;19.378;2023-07-22T10:13:33;3.60;;;1.80;;
58784;SDS011;44557;51.862;19.378;2023-07-22T10:15:36;2.50;;;1.50;;
58784;SDS011;44557;51.862;19.378;2023-07-22T10:17:41;3.70;;;1.70;;
58784;SDS011;44557;51.862;19.378;2023-07-22T10:19:44;4.70;;;1.90;;
58784;SDS011;44557;51.862;19.378;2023-07-22T10:21:46;2.90;;;1.70;;
58784;SDS011;44557;51.862;19.378;2023-07-22T10:23:48;5.10;;;1.80;;
58784;SDS011;44557;51.862;19.378;2023-07-22T10:25:52;4.30;;;1.60;;
58784;SDS011;44557;51.862;19.378;2023-07-22T10:27:55;3.70;;;1.90;;
58784;SDS011;44557;51.862;19.378;2023-07-22T10:29:58;3.20;;;1.70;;
58784;SDS011;44557;51.862;19.378;2023-07-22T10:32:00;4.10;;;2.20;;
58784;SDS011;44557;51.862;19.378;2023-07-22T10:34:02;3.40;;;1.80;;
58784;SDS011;44557;51.862;19.378;2023-07-22T10:36:08;3.30;;;2.10;;
58784;SDS011;44557;51.862;19.378;2023-07-22T10:38:14;3.10;;;1.90;;
58784;SDS011;44557;51.862;19.378;2023-07-22T10:40:27;4.50;;;2.00;;
58784;SDS011;44557;51.862;19.378;2023-07-22T10:42:31;5.60;;;1.90;;
58784;SDS011;44557;51.862;19.378;2023-07-22T10:44:37;3.80;;;1.80;;
58784;SDS011;44557;51.862;19.378;2023-07-22T10:46:39;2.60;;;1.70;;
58784;SDS011;44557;51.862;19.378;2023-07-22T10:48:44;2.80;;;1.40;;
58784;SDS011;44557;51.862;19.378;2023-07-22T10:50:49;5.10;;;3.20;;
58784;SDS011;44557;51.862;19.378;2023-07-22T10:52:55;3.20;;;2.00;;
58784;SDS011;44557;51.862;19.378;2023-07-22T10:55:03;6.30;;;1.80;;
58784;SDS011;44557;51.862;19.378;2023-07-22T10:59:17;4.60;;;1.80;;
58784;SDS011;44557;51.862;19.378;2023-07-22T11:03:29;5.20;;;3.00;;
58784;SDS011;44557;51.862;19.378;2023-07-22T11:08:03;5.50;;;2.60;;
58784;SDS011;44557;51.862;19.378;2023-07-22T11:10:15;3.20;;;2.10;;
58784;SDS011;44557;51.862;19.378;2023-07-22T11:12:18;5.30;;;3.40;;
58784;SDS011;44557;51.862;19.378;2023-07-22T11:14:21;4.70;;;2.40;;
58784;SDS011;44557;51.862;19.378;2023-07-22T11:16:26;4.70;;;2.10;;
58784;SDS011;44557;51.862;19.378;2023-07-22T11:18:39;5.40;;;2.20;;
58784;SDS011;44557;51.862;19.378;2023-07-22T11:20:42;3.40;;;2.10;;
58784;SDS011;44557;51.862;19.378;2023-07-22T11:22:43;3.30;;;2.10;;
58784;SDS011;44557;51.862;19.378;2023-07-22T11:24:46;5.60;;;2.20;;
58784;SDS011;44557;51.862;19.378;2023-07-22T11:26:47;4.80;;;2.00;;
58784;SDS011;44557;51.862;19.378;2023-07-22T11:28:50;4.80;;;2.10;;
58784;SDS011;44557;51.862;19.378;2023-07-22T11:30:54;5.60;;;2.20;;
58784;SDS011;44557;51.862;19.378;2023-07-22T11:32:57;4.20;;;2.10;;
58784;SDS011;44557;51.862;19.378;2023-07-22T11:35:00;2.50;;;1.80;;
58784;SDS011;44557;51.862;19.378;2023-07-22T11:37:01;5.70;;;2.20;;
58784;SDS011;44557;51.862;19.378;2023-07-22T11:39:05;3.30;;;2.00;;
58784;SDS011;44557;51.862;19.378;2023-07-22T11:41:07;4.40;;;2.20;;
58784;SDS011;44557;51.862;19.378;2023-07-22T11:43:10;5.00;;;2.00;;
58784;SDS011;44557;51.862;19.378;2023-07-22T11:45:12;4.60;;;2.70;;
58784;SDS011;44557;51.862;19.378;2023-07-22T11:47:14;6.40;;;2.50;;
58784;SDS011;44557;51.862;19.378;2023-07-22T11:51:34;3.80;;;2.00;;
58784;SDS011;44557;51.862;19.378;2023-07-22T11:53:35;2.40;;;1.70;;
58784;SDS011;44557;51.862;19.378;2023-07-22T11:55:37;2.30;;;1.60;;
58784;SDS011;44557;51.862;19.378;2023-07-22T11:57:39;2.40;;;1.70;;
58784;SDS011;44557;51.862;19.378;2023-07-22T11:59:45;3.10;;;2.00;;
58784;SDS011;44557;51.862;19.378;2023-07-22T12:01:48;3.00;;;1.80;;
58784;SDS011;44557;51.862;19.378;2023-07-22T12:03:55;3.20;;;1.80;;
58784;SDS011;44557;51.862;19.378;2023-07-22T12:06:00;3.00;;;2.00;;
58784;SDS011;44557;51.862;19.378;2023-07-22T12:08:04;3.30;;;1.80;;
58784;SDS011;44557;51.862;19.378;2023-07-22T12:10:07;4.00;;;1.90;;
58784;SDS011;44557;51.862;19.378;2023-07-22T12:12:11;2.50;;;1.80;;
58784;SDS011;44557;51.862;19.378;2023-07-22T12:14:13;2.10;;;1.60;;
58784;SDS011;44557;51.862;19.378;2023-07-22T12:16:20;3.10;;;1.40;;
58784;SDS011;44557;51.862;19.378;2023-07-22T12:18:26;2.70;;;1.70;;
58784;SDS011;44557;51.862;19.378;2023-07-22T12:20:31;4.60;;;2.10;;
58784;SDS011;44557;51.862;19.378;2023-07-22T12:22:36;3.60;;;1.90;;